createdAt,value
2019-05-16T00:01:33.827Z,16.80
2019-05-16T00:04:08.484Z,16.80
2019-05-16T00:06:41.432Z,16.80
2019-05-16T00:09:13.852Z,16.80
2019-05-16T00:11:49.969Z,16.80
2019-05-16T00:14:22.418Z,16.70
2019-05-16T00:16:54.844Z,16.70
2019-05-16T00:19:28.765Z,16.70
2019-05-16T00:22:01.351Z,16.70
2019-05-16T00:24:33.864Z,16.70
2019-05-16T00:27:08.335Z,16.70
2019-05-16T00:29:40.490Z,16.60
2019-05-16T00:32:13.016Z,16.60
2019-05-16T00:34:47.683Z,16.60
2019-05-16T00:37:23.051Z,16.60
2019-05-16T00:39:54.669Z,16.60
2019-05-16T00:42:28.658Z,16.60
2019-05-16T00:45:01.268Z,16.60
2019-05-16T00:47:33.668Z,16.60
2019-05-16T00:50:08.560Z,16.60
2019-05-16T00:52:40.640Z,16.60
2019-05-16T00:55:13.066Z,16.60
2019-05-16T00:57:45.459Z,16.60
2019-05-16T01:00:21.886Z,16.60
2019-05-16T01:02:54.284Z,16.60
2019-05-16T01:05:28.428Z,16.60
2019-05-16T01:08:00.879Z,16.60
2019-05-16T01:10:33.651Z,16.70
2019-05-16T01:13:07.842Z,16.70
2019-05-16T01:15:40.180Z,16.70
2019-05-16T01:18:12.659Z,16.60
2019-05-16T01:20:45.075Z,16.60
2019-05-16T01:23:18.213Z,16.60
2019-05-16T01:25:50.867Z,16.60
2019-05-16T01:28:23.271Z,16.50
2019-05-16T01:30:57.840Z,16.50
2019-05-16T01:33:29.713Z,16.50
2019-05-16T01:36:02.137Z,16.50
2019-05-16T01:38:34.540Z,16.40
2019-05-16T01:41:08.798Z,16.40
2019-05-16T01:43:41.042Z,16.40
2019-05-16T01:46:13.460Z,16.30
2019-05-16T01:48:48.263Z,16.30
2019-05-16T01:51:20.030Z,16.30
2019-05-16T01:53:52.422Z,16.30
2019-05-16T01:56:24.851Z,16.20
2019-05-16T01:58:58.239Z,16.20
2019-05-16T02:01:30.948Z,16.20
2019-05-16T02:04:03.345Z,16.20
2019-05-16T02:06:48.369Z,16.20
2019-05-16T02:09:11.531Z,16.20
2019-05-16T02:11:43.977Z,16.20
2019-05-16T02:14:17.688Z,16.20
2019-05-16T02:16:50.292Z,16.20
2019-05-16T02:19:22.682Z,16.20
2019-05-16T02:21:55.103Z,16.20
2019-05-16T02:24:28.501Z,16.20
2019-05-16T02:27:00.991Z,16.20
2019-05-16T02:29:33.379Z,16.20
2019-05-16T02:32:05.892Z,16.20
2019-05-16T02:34:41.372Z,16.20
2019-05-16T02:37:24.245Z,16.20
2019-05-16T02:39:47.583Z,16.20
2019-05-16T02:42:21.245Z,16.20
2019-05-16T02:44:53.803Z,16.10
2019-05-16T02:47:26.221Z,16.10
2019-05-16T02:50:01.222Z,16.10
2019-05-16T02:52:32.775Z,16.10
2019-05-16T02:55:05.180Z,16.10
2019-05-16T02:57:41.119Z,16.00
2019-05-16T03:00:12.552Z,16.00
2019-05-16T03:02:44.989Z,16.00
2019-05-16T03:05:20.604Z,16.00
2019-05-16T03:07:52.302Z,15.90
2019-05-16T03:10:24.780Z,15.90
2019-05-16T03:13:00.593Z,15.90
2019-05-16T03:15:31.699Z,15.90
2019-05-16T03:18:04.746Z,15.90
2019-05-16T03:20:37.287Z,15.80
2019-05-16T03:23:11.357Z,15.80
2019-05-16T03:25:43.842Z,15.80
2019-05-16T03:28:16.293Z,15.90
2019-05-16T03:30:53.663Z,15.90
2019-05-16T03:33:31.598Z,15.90
2019-05-16T03:35:56.920Z,15.90
2019-05-16T03:38:30.781Z,15.90
2019-05-16T03:41:03.434Z,15.90
2019-05-16T03:43:35.855Z,15.90
2019-05-16T03:46:11.465Z,15.90
2019-05-16T03:48:42.463Z,15.90
2019-05-16T03:51:14.861Z,15.90
2019-05-16T03:53:50.584Z,15.90
2019-05-16T03:56:22.047Z,15.90
2019-05-16T03:58:54.691Z,15.90
2019-05-16T04:01:27.126Z,15.90
2019-05-16T04:04:01.604Z,15.90
2019-05-16T04:06:33.637Z,15.90
2019-05-16T04:09:11.372Z,15.90
2019-05-16T04:11:42.962Z,15.90
2019-05-16T04:14:15.566Z,15.90
2019-05-16T04:16:50.912Z,15.90
2019-05-16T04:19:22.111Z,15.90
2019-05-16T04:21:54.529Z,15.90
2019-05-16T04:24:26.952Z,15.80
2019-05-16T04:27:00.968Z,15.80
2019-05-16T04:29:33.763Z,15.90
2019-05-16T04:32:06.171Z,15.90
2019-05-16T04:34:41.541Z,15.90
2019-05-16T04:37:12.703Z,15.90
2019-05-16T04:39:45.115Z,15.90
2019-05-16T04:42:17.598Z,15.90
2019-05-16T04:44:51.651Z,15.90
2019-05-16T04:47:24.307Z,15.90
2019-05-16T04:49:56.720Z,15.90
2019-05-16T04:52:30.656Z,15.90
2019-05-16T04:55:03.415Z,15.90
2019-05-16T04:57:35.860Z,15.90
2019-05-16T05:00:11.289Z,15.90
2019-05-16T05:02:42.410Z,15.90
2019-05-16T05:05:14.856Z,16.00
2019-05-16T05:07:47.252Z,16.00
2019-05-16T05:10:21.369Z,16.10
2019-05-16T05:12:53.754Z,16.10
2019-05-16T05:15:26.493Z,16.20
2019-05-16T05:18:00.575Z,16.20
2019-05-16T05:20:32.947Z,16.30
2019-05-16T05:23:05.346Z,16.40
2019-05-16T05:25:40.215Z,16.40
2019-05-16T05:28:13.528Z,16.50
2019-05-16T05:30:46.981Z,16.50
2019-05-16T05:33:21.202Z,16.50
2019-05-16T05:35:53.505Z,16.60
2019-05-16T05:38:25.902Z,16.60
2019-05-16T05:41:00.146Z,16.70
2019-05-16T05:43:32.431Z,16.70
2019-05-16T05:46:05.030Z,16.70
2019-05-16T05:48:37.359Z,16.70
2019-05-16T05:51:11.218Z,16.80
2019-05-16T05:53:44.033Z,16.80
2019-05-16T05:56:16.460Z,16.80
2019-05-16T05:58:51.143Z,16.80
2019-05-16T06:01:22.995Z,16.90
2019-05-16T06:03:55.324Z,16.90
2019-05-16T06:06:30.235Z,16.90
2019-05-16T06:09:02.121Z,16.90
2019-05-16T06:11:35.867Z,16.90
2019-05-16T06:14:09.802Z,17.00
2019-05-16T06:16:42.433Z,17.00
2019-05-16T06:19:14.827Z,17.00
2019-05-16T06:21:47.250Z,17.10
2019-05-16T06:24:20.231Z,17.10
2019-05-16T06:26:52.738Z,17.10
2019-05-16T06:29:25.166Z,17.20
2019-05-16T06:32:00.085Z,17.20
2019-05-16T06:34:31.874Z,17.20
2019-05-16T06:37:04.313Z,17.30
2019-05-16T06:39:42.057Z,17.30
2019-05-16T06:42:10.835Z,17.40
2019-05-16T06:44:43.277Z,17.40
2019-05-16T06:47:19.914Z,17.40
2019-05-16T06:49:50.982Z,17.40
2019-05-16T06:52:23.467Z,17.50
2019-05-16T06:54:55.859Z,17.50
2019-05-16T06:57:30.229Z,17.60
2019-05-16T07:00:02.400Z,17.60
2019-05-16T07:02:34.867Z,17.70
2019-05-16T07:05:09.864Z,17.70
2019-05-16T07:07:41.464Z,17.80
2019-05-16T07:10:13.869Z,17.80
2019-05-16T07:12:46.292Z,17.90
2019-05-16T07:15:20.855Z,17.90
2019-05-16T07:17:53.273Z,18.00
2019-05-16T07:20:25.680Z,18.00
2019-05-16T07:23:00.625Z,18.00
2019-05-16T07:25:32.345Z,18.10
2019-05-16T07:28:04.860Z,18.10
2019-05-16T07:30:40.694Z,18.10
2019-05-16T07:33:12.545Z,18.20
2019-05-16T07:35:44.939Z,18.20
2019-05-16T07:38:17.363Z,18.20
2019-05-16T07:40:51.246Z,18.30
2019-05-16T07:43:24.948Z,18.30
2019-05-16T07:45:57.351Z,18.30
2019-05-16T07:48:31.669Z,18.30
2019-05-16T07:51:04.615Z,18.30
2019-05-16T07:53:37.108Z,18.30
2019-05-16T07:56:10.722Z,18.40
2019-05-16T07:58:43.123Z,18.40
2019-05-16T08:01:15.487Z,18.40
2019-05-16T08:03:50.658Z,18.50
2019-05-16T08:06:23.014Z,18.50
2019-05-16T08:08:55.439Z,18.60
2019-05-16T08:11:30.486Z,18.60
2019-05-16T08:14:01.980Z,18.70
2019-05-16T08:16:34.470Z,18.70
2019-05-16T08:19:10.316Z,18.80
2019-05-16T08:21:42.069Z,18.90
2019-05-16T08:24:15.243Z,18.90
2019-05-16T08:26:47.766Z,18.90
2019-05-16T08:29:22.039Z,18.90
2019-05-16T08:31:54.572Z,19.00
2019-05-16T08:34:26.988Z,19.00
2019-05-16T08:37:01.131Z,19.10
2019-05-16T08:39:33.756Z,19.10
2019-05-16T08:42:08.499Z,19.10
2019-05-16T08:44:41.824Z,19.20
2019-05-16T08:47:14.490Z,19.30
2019-05-16T08:49:51.454Z,19.40
2019-05-16T08:52:22.622Z,19.50
2019-05-16T08:54:55.108Z,19.60
2019-05-16T09:00:01.934Z,19.80
2019-05-16T09:02:37.210Z,19.90
2019-05-16T09:05:12.978Z,20.00
2019-05-16T09:07:42.700Z,20.10
2019-05-16T09:10:35.497Z,19.70
2019-05-16T09:10:45.914Z,20.20
2019-05-16T09:12:49.237Z,20.40
2019-05-16T09:15:21.726Z,20.60
2019-05-16T09:17:54.124Z,20.70
2019-05-16T09:20:28.079Z,20.80
2019-05-16T09:23:00.681Z,20.90
2019-05-16T09:25:36.842Z,21.00
2019-05-16T09:28:08.345Z,21.10
2019-05-16T09:30:42.343Z,21.10
2019-05-16T09:33:17.250Z,21.20
2019-05-16T09:35:49.849Z,21.30
2019-05-16T09:38:23.726Z,21.30
2019-05-16T09:40:57.084Z,21.40
2019-05-16T09:43:29.715Z,21.40
2019-05-16T09:46:07.620Z,21.40
2019-05-16T09:48:38.010Z,21.40
2019-05-16T09:51:10.381Z,21.40
2019-05-16T09:53:42.795Z,21.40
2019-05-16T09:56:16.860Z,21.50
2019-05-16T09:58:49.418Z,21.60
2019-05-16T10:01:21.862Z,21.70
2019-05-16T10:03:54.255Z,21.90
2019-05-16T10:06:27.573Z,21.90
2019-05-16T10:09:00.166Z,22.10
2019-05-16T10:11:32.629Z,22.10
2019-05-16T10:14:07.286Z,22.20
2019-05-16T10:16:39.208Z,22.40
2019-05-16T10:19:11.616Z,22.70
2019-05-16T10:21:44.045Z,23.30
2019-05-16T10:24:18.688Z,23.80
2019-05-16T10:26:53.934Z,24.30
2019-05-16T10:29:27.575Z,24.70
2019-05-16T10:32:00.190Z,25.10
2019-05-16T10:34:32.588Z,25.40
2019-05-16T10:37:05.005Z,25.40
2019-05-16T10:39:37.532Z,25.50
2019-05-16T10:42:23.468Z,25.40
2019-05-16T10:44:48.025Z,25.30
2019-05-16T10:47:19.264Z,25.20
2019-05-16T10:49:51.672Z,25.00
2019-05-16T10:52:24.111Z,24.90
2019-05-16T10:55:01.849Z,24.70
2019-05-16T10:57:30.845Z,24.50
2019-05-16T11:00:12.390Z,24.30
2019-05-16T11:02:40.029Z,24.20
2019-05-16T11:05:25.172Z,23.90
2019-05-16T11:07:48.495Z,23.70
2019-05-16T11:10:20.873Z,23.50
2019-05-16T11:12:55.519Z,23.40
2019-05-16T11:15:27.927Z,23.20
2019-05-16T11:18:00.651Z,23.10
2019-05-16T11:20:33.110Z,23.00
2019-05-16T11:23:07.894Z,22.80
2019-05-16T11:25:39.909Z,22.70
2019-05-16T11:28:12.349Z,22.60
2019-05-16T11:30:47.402Z,22.50
2019-05-16T11:33:18.877Z,22.40
2019-05-16T11:35:51.346Z,22.30
2019-05-16T11:38:23.782Z,22.20
2019-05-16T11:40:56.870Z,22.10
2019-05-16T11:43:29.473Z,22.10
2019-05-16T11:46:01.883Z,22.00
2019-05-16T11:48:37.403Z,22.00
2019-05-16T11:51:08.644Z,21.90
2019-05-16T11:53:41.009Z,21.90
2019-05-16T11:56:13.360Z,21.80
2019-05-16T11:58:47.355Z,21.80
2019-05-16T12:01:20.230Z,21.70
2019-05-16T12:03:52.659Z,21.70
2019-05-16T12:06:26.821Z,21.70
2019-05-16T12:08:59.300Z,21.70
2019-05-16T12:11:31.694Z,21.70
2019-05-16T12:14:04.132Z,21.70
2019-05-16T12:16:37.925Z,21.70
2019-05-16T12:19:10.516Z,21.60
2019-05-16T12:21:42.937Z,21.60
2019-05-16T12:24:29.172Z,21.50
2019-05-16T12:26:49.460Z,21.50
2019-05-16T12:29:21.888Z,21.40
2019-05-16T12:32:01.800Z,21.40
2019-05-16T12:34:28.361Z,21.40
2019-05-16T12:37:00.768Z,21.30
2019-05-16T12:39:33.243Z,21.30
2019-05-16T12:42:08.405Z,21.30
2019-05-16T12:44:39.955Z,21.20
2019-05-16T12:47:12.357Z,21.20
2019-05-16T12:49:47.164Z,21.20
2019-05-16T12:52:18.909Z,21.20
2019-05-16T12:54:51.348Z,21.10
2019-05-16T12:57:30.166Z,21.10
2019-05-16T12:59:57.874Z,21.10
2019-05-16T13:02:30.273Z,21.10
2019-05-16T13:05:02.830Z,21.10
2019-05-16T13:07:37.748Z,21.10
2019-05-16T13:10:09.815Z,21.10
2019-05-16T13:12:43.288Z,21.10
2019-05-16T13:15:18.282Z,21.10
2019-05-16T13:17:50.042Z,21.10
2019-05-16T13:20:22.573Z,21.10
2019-05-16T13:22:56.696Z,21.10
2019-05-16T13:25:29.206Z,21.10
2019-05-16T13:28:01.608Z,21.10
2019-05-16T13:30:34.114Z,21.10
2019-05-16T13:33:07.270Z,21.10
2019-05-16T13:35:39.908Z,21.20
2019-05-16T13:38:12.368Z,21.20
2019-05-16T13:40:44.825Z,21.20
2019-05-16T13:43:17.603Z,21.20
2019-05-16T13:45:50.067Z,21.30
2019-05-16T13:48:22.476Z,21.30
2019-05-16T13:51:08.385Z,21.30
2019-05-16T13:53:29.020Z,21.40
2019-05-16T13:56:01.689Z,21.40
2019-05-16T13:58:34.084Z,21.40
2019-05-16T14:01:07.852Z,21.50
2019-05-16T14:03:44.032Z,21.50
2019-05-16T14:06:18.466Z,21.50
2019-05-16T14:08:51.356Z,21.50
2019-05-16T14:11:23.767Z,21.50
2019-05-16T14:13:56.407Z,21.50
2019-05-16T14:16:28.984Z,21.50
2019-05-16T14:19:01.384Z,21.50
2019-05-16T14:21:33.815Z,21.60
2019-05-16T14:24:08.709Z,21.60
2019-05-16T14:26:40.383Z,21.60
2019-05-16T14:29:12.882Z,21.60
2019-05-16T14:31:46.983Z,21.50
2019-05-16T14:34:19.721Z,21.50
2019-05-16T14:36:52.151Z,21.50
2019-05-16T14:39:28.108Z,21.50
2019-05-16T14:41:58.815Z,21.50
2019-05-16T14:44:31.338Z,21.40
2019-05-16T14:47:06.938Z,21.40
2019-05-16T14:49:38.968Z,21.40
2019-05-16T14:52:11.416Z,21.40
2019-05-16T14:54:43.821Z,21.40
2019-05-16T14:57:16.724Z,21.40
2019-05-16T14:59:50.012Z,21.40
2019-05-16T15:02:22.482Z,21.40
2019-05-16T15:04:56.940Z,21.30
2019-05-16T15:07:29.590Z,21.30
2019-05-16T15:10:02.053Z,21.30
2019-05-16T15:12:37.293Z,21.30
2019-05-16T15:15:20.213Z,21.20
2019-05-16T15:17:47.332Z,21.20
2019-05-16T15:20:20.044Z,21.20
2019-05-16T15:22:53.560Z,21.10
2019-05-16T15:25:26.613Z,21.10
2019-05-16T15:28:00.547Z,21.00
2019-05-16T15:30:39.024Z,21.00
2019-05-16T15:33:08.911Z,20.90
2019-05-16T15:35:41.497Z,20.90
2019-05-16T15:38:16.531Z,20.80
2019-05-16T15:40:48.416Z,20.70
2019-05-16T15:43:20.836Z,20.70
2019-05-16T15:45:53.465Z,20.60
2019-05-16T15:48:27.360Z,20.60
2019-05-16T15:51:00.165Z,20.50
2019-05-16T15:53:32.687Z,20.50
2019-05-16T15:56:07.066Z,20.50
2019-05-16T15:58:39.365Z,20.40
2019-05-16T16:01:11.749Z,20.40
2019-05-16T16:03:47.076Z,20.40
2019-05-16T16:06:18.711Z,20.40
2019-05-16T16:08:51.146Z,20.40
2019-05-16T16:11:23.557Z,20.30
2019-05-16T16:13:57.711Z,20.30
2019-05-16T16:16:30.229Z,20.30
2019-05-16T16:19:02.656Z,20.20
2019-05-16T16:21:37.763Z,20.20
2019-05-16T16:24:11.507Z,20.20
2019-05-16T16:26:43.972Z,20.20
2019-05-16T16:29:16.985Z,20.20
2019-05-16T16:31:49.448Z,20.10
2019-05-16T16:34:21.910Z,20.10
2019-05-16T16:36:56.883Z,20.10
2019-05-16T16:39:28.961Z,20.00
2019-05-16T16:42:01.523Z,20.00
2019-05-16T16:44:36.403Z,20.00
2019-05-16T16:47:08.124Z,19.90
2019-05-16T16:49:41.008Z,19.90
2019-05-16T16:52:13.469Z,19.90
2019-05-16T16:54:47.614Z,19.80
2019-05-16T16:57:19.967Z,19.80
2019-05-16T16:59:52.441Z,19.80
2019-05-16T17:02:27.609Z,19.80
2019-05-16T17:05:01.359Z,19.70
2019-05-16T17:07:33.197Z,19.70
2019-05-16T17:10:07.011Z,19.60
2019-05-16T17:12:42.257Z,19.60
2019-05-16T17:15:13.730Z,19.60
2019-05-16T17:17:46.699Z,19.60
2019-05-16T17:20:19.414Z,19.50
2019-05-16T17:22:51.906Z,19.50
2019-05-16T17:25:24.298Z,19.50
2019-05-16T17:27:57.264Z,19.50
2019-05-16T17:30:29.840Z,19.50
2019-05-16T17:33:02.379Z,19.50
2019-05-16T17:35:38.598Z,19.50
2019-05-16T17:38:08.975Z,19.50
2019-05-16T17:40:41.477Z,19.50
2019-05-16T17:43:16.267Z,19.50
2019-05-16T17:45:48.152Z,19.50
2019-05-16T17:48:20.619Z,19.50
2019-05-16T17:50:53.139Z,19.50
2019-05-16T17:53:26.679Z,19.40
2019-05-16T17:55:59.176Z,19.40
2019-05-16T17:58:31.582Z,19.40
2019-05-16T18:01:06.740Z,19.40
2019-05-16T18:03:39.455Z,19.40
2019-05-16T18:06:11.879Z,19.40
2019-05-16T18:08:46.696Z,19.40
2019-05-16T18:11:18.460Z,19.40
2019-05-16T18:13:50.875Z,19.40
2019-05-16T18:16:23.323Z,19.30
2019-05-16T18:18:57.505Z,19.40
2019-05-16T18:21:29.879Z,19.30
2019-05-16T18:24:02.305Z,19.30
2019-05-16T18:26:34.718Z,19.30
2019-05-16T18:29:07.371Z,19.30
2019-05-16T18:31:39.788Z,19.30
2019-05-16T18:34:12.203Z,19.20
2019-05-16T18:36:46.712Z,19.20
2019-05-16T18:39:18.920Z,19.20
2019-05-16T18:41:51.401Z,19.20
2019-05-16T18:44:23.803Z,19.20
2019-05-16T18:47:04.820Z,19.20
2019-05-16T18:49:30.318Z,19.10
2019-05-16T18:52:02.742Z,19.10
2019-05-16T18:54:37.583Z,19.10
2019-05-16T18:57:09.339Z,19.10
2019-05-16T18:59:41.749Z,19.10
2019-05-16T19:02:14.244Z,19.10
2019-05-16T19:04:49.783Z,19.00
2019-05-16T19:07:20.850Z,19.00
2019-05-16T19:09:53.318Z,19.00
2019-05-16T19:12:26.280Z,19.00
2019-05-16T19:15:00.232Z,19.00
2019-05-16T19:17:33.028Z,19.00
2019-05-16T19:20:07.452Z,19.00
2019-05-16T19:22:39.914Z,19.00
2019-05-16T19:25:12.321Z,19.00
2019-05-16T19:27:46.434Z,19.00
2019-05-16T19:30:20.092Z,18.90
2019-05-16T19:32:52.511Z,18.90
2019-05-16T19:35:27.292Z,18.90
2019-05-16T19:37:59.112Z,18.90
2019-05-16T19:40:31.508Z,18.90
2019-05-16T19:43:03.928Z,18.90
2019-05-16T19:45:37.306Z,18.90
2019-05-16T19:48:09.924Z,18.90
2019-05-16T19:50:42.330Z,18.90
2019-05-16T19:53:16.500Z,18.90
2019-05-16T19:55:49.204Z,18.90
2019-05-16T19:58:21.763Z,18.80
2019-05-16T20:00:54.185Z,18.80
2019-05-16T20:03:27.279Z,18.80
2019-05-16T20:05:59.954Z,18.80
2019-05-16T20:08:32.440Z,18.80
2019-05-16T20:11:04.851Z,18.80
2019-05-16T20:13:37.279Z,18.80
2019-05-16T20:16:09.698Z,18.80
2019-05-16T20:18:42.157Z,18.80
2019-05-16T20:21:16.472Z,18.70
2019-05-16T20:23:48.659Z,18.70
2019-05-16T20:26:21.065Z,18.70
2019-05-16T20:28:53.480Z,18.60
2019-05-16T20:31:27.238Z,18.70
2019-05-16T20:33:59.844Z,18.60
2019-05-16T20:36:32.247Z,18.60
2019-05-16T20:39:06.475Z,18.60
2019-05-16T20:41:39.834Z,18.60
2019-05-16T20:44:12.264Z,18.60
2019-05-16T20:46:46.782Z,18.60
2019-05-16T20:49:18.820Z,18.60
2019-05-16T20:51:51.234Z,18.60
2019-05-16T20:54:23.660Z,18.60
2019-05-16T20:56:57.373Z,18.60
2019-05-16T20:59:29.970Z,18.60
2019-05-16T21:02:02.370Z,18.60
2019-05-16T21:04:34.791Z,18.60
2019-05-16T21:07:10.759Z,18.60
2019-05-16T21:09:41.321Z,18.60
2019-05-16T21:12:13.764Z,18.60
2019-05-16T21:14:46.207Z,18.50
2019-05-16T21:17:18.623Z,18.50
2019-05-16T21:19:51.123Z,18.50
2019-05-16T21:22:23.567Z,18.50
2019-05-16T21:24:57.160Z,18.50
2019-05-16T21:27:29.728Z,18.50
2019-05-16T21:30:02.330Z,18.50
2019-05-16T21:32:36.539Z,18.40
2019-05-16T21:35:09.246Z,18.50
2019-05-16T21:37:41.654Z,18.40
2019-05-16T21:40:14.110Z,18.40
2019-05-16T21:42:46.504Z,18.40
2019-05-16T21:45:19.020Z,18.40
2019-05-16T21:47:51.485Z,18.40
2019-05-16T21:50:23.906Z,18.40
2019-05-16T21:52:56.697Z,18.30
2019-05-16T21:55:30.009Z,18.30
2019-05-16T21:58:02.572Z,18.30
2019-05-16T22:00:42.948Z,18.30
2019-05-16T22:03:16.057Z,18.30
2019-05-16T22:05:48.618Z,18.30
2019-05-16T22:08:21.290Z,18.30
2019-05-16T22:10:53.876Z,18.30
2019-05-16T22:13:26.390Z,18.30
2019-05-16T22:15:58.908Z,18.30
2019-05-16T22:18:31.372Z,18.30
2019-05-16T22:21:03.794Z,18.40
2019-05-16T22:23:37.397Z,18.40
2019-05-16T22:26:10.051Z,18.40
2019-05-16T22:28:42.465Z,18.40
2019-05-16T22:31:16.531Z,18.40
2019-05-16T22:33:49.066Z,18.40
2019-05-16T22:36:21.504Z,18.40
2019-05-16T22:38:53.908Z,18.40
2019-05-16T22:41:26.539Z,18.40
2019-05-16T22:44:00.076Z,18.40
2019-05-16T22:46:32.507Z,18.40
2019-05-16T22:49:07.434Z,18.40
2019-05-16T22:51:39.031Z,18.40
2019-05-16T22:54:11.430Z,18.30
2019-05-16T22:56:43.825Z,18.30
2019-05-16T22:59:16.718Z,18.30
2019-05-16T23:01:49.337Z,18.30
2019-05-16T23:04:21.725Z,18.30
2019-05-16T23:06:56.344Z,18.30
2019-05-16T23:09:28.234Z,18.20
2019-05-16T23:12:00.662Z,18.30
2019-05-16T23:14:33.136Z,18.30
2019-05-16T23:17:06.745Z,18.20
2019-05-16T23:19:40.282Z,18.20
2019-05-16T23:22:12.702Z,18.20
2019-05-16T23:24:46.348Z,18.20
2019-05-16T23:27:18.911Z,18.20
2019-05-16T23:29:51.323Z,18.20
2019-05-16T23:32:23.795Z,18.20
2019-05-16T23:34:57.232Z,18.20
2019-05-16T23:37:29.795Z,18.20
2019-05-16T23:40:02.193Z,18.20
2019-05-16T23:42:36.903Z,18.10
2019-05-16T23:45:09.171Z,18.10
2019-05-16T23:47:41.635Z,18.10
2019-05-16T23:50:14.038Z,18.10
2019-05-16T23:52:47.089Z,18.10
2019-05-16T23:55:19.813Z,18.20
2019-05-16T23:57:52.253Z,18.10
